sensor_id;sensor_type;location;lat;lon;timestamp;temperature;humidity
53645;DHT22;39547;45.554;12.068;2023-06-01T00:01:52;21.30;56.80
53645;DHT22;39547;45.554;12.068;2023-06-01T00:07:54;21.30;57.10
53645;DHT22;39547;45.554;12.068;2023-06-01T00:13:55;21.20;57.80
53645;DHT22;39547;45.554;12.068;2023-06-01T00:19:56;21.20;57.80
53645;DHT22;39547;45.554;12.068;2023-06-01T00:25:58;21.10;58.50
53645;DHT22;39547;45.554;12.068;2023-06-01T00:31:59;21.00;58.10
53645;DHT22;39547;45.554;12.068;2023-06-01T00:38:01;21.00;58.40
53645;DHT22;39547;45.554;12.068;2023-06-01T00:44:03;20.90;58.60
53645;DHT22;39547;45.554;12.068;2023-06-01T00:50:04;20.80;58.40
53645;DHT22;39547;45.554;12.068;2023-06-01T00:56:06;20.70;58.50
53645;DHT22;39547;45.554;12.068;2023-06-01T01:02:07;20.70;58.70
53645;DHT22;39547;45.554;12.068;2023-06-01T01:14:21;20.50;59.30
53645;DHT22;39547;45.554;12.068;2023-06-01T01:20:24;20.40;59.60
53645;DHT22;39547;45.554;12.068;2023-06-01T01:26:40;20.30;59.60
53645;DHT22;39547;45.554;12.068;2023-06-01T01:32:42;20.30;59.60
53645;DHT22;39547;45.554;12.068;2023-06-01T01:38:44;20.30;60.20
53645;DHT22;39547;45.554;12.068;2023-06-01T01:44:45;20.20;60.30
53645;DHT22;39547;45.554;12.068;2023-06-01T01:51:07;20.20;61.30
53645;DHT22;39547;45.554;12.068;2023-06-01T01:57:11;20.10;61.30
53645;DHT22;39547;45.554;12.068;2023-06-01T02:03:16;20.00;61.20
53645;DHT22;39547;45.554;12.068;2023-06-01T02:09:18;20.00;61.30
53645;DHT22;39547;45.554;12.068;2023-06-01T02:15:19;19.90;61.50
53645;DHT22;39547;45.554;12.068;2023-06-01T02:21:20;19.90;62.40
53645;DHT22;39547;45.554;12.068;2023-06-01T02:27:22;19.80;62.10
53645;DHT22;39547;45.554;12.068;2023-06-01T02:33:24;19.80;62.00
53645;DHT22;39547;45.554;12.068;2023-06-01T02:39:26;19.70;62.00
53645;DHT22;39547;45.554;12.068;2023-06-01T02:45:28;19.70;62.20
53645;DHT22;39547;45.554;12.068;2023-06-01T02:51:29;19.70;62.50
53645;DHT22;39547;45.554;12.068;2023-06-01T02:57:53;19.70;62.50
53645;DHT22;39547;45.554;12.068;2023-06-01T03:03:54;19.70;62.30
53645;DHT22;39547;45.554;12.068;2023-06-01T03:09:56;19.60;62.70
53645;DHT22;39547;45.554;12.068;2023-06-01T03:16:16;19.50;63.00
53645;DHT22;39547;45.554;12.068;2023-06-01T03:22:28;19.50;62.80
53645;DHT22;39547;45.554;12.068;2023-06-01T03:28:30;19.40;62.90
53645;DHT22;39547;45.554;12.068;2023-06-01T03:34:31;19.40;63.00
53645;DHT22;39547;45.554;12.068;2023-06-01T03:40:34;19.30;64.50
53645;DHT22;39547;45.554;12.068;2023-06-01T03:46:35;19.10;65.70
53645;DHT22;39547;45.554;12.068;2023-06-01T03:52:37;19.00;65.60
53645;DHT22;39547;45.554;12.068;2023-06-01T03:58:39;19.00;65.70
53645;DHT22;39547;45.554;12.068;2023-06-01T04:04:41;19.00;65.70
53645;DHT22;39547;45.554;12.068;2023-06-01T04:10:46;19.10;66.00
53645;DHT22;39547;45.554;12.068;2023-06-01T04:16:48;19.10;65.70
53645;DHT22;39547;45.554;12.068;2023-06-01T04:22:49;19.20;66.00
53645;DHT22;39547;45.554;12.068;2023-06-01T04:28:51;19.20;65.40
53645;DHT22;39547;45.554;12.068;2023-06-01T04:34:52;19.20;66.10
53645;DHT22;39547;45.554;12.068;2023-06-01T04:40:54;19.30;65.50
53645;DHT22;39547;45.554;12.068;2023-06-01T04:46:56;19.40;66.00
53645;DHT22;39547;45.554;12.068;2023-06-01T04:52:58;19.40;65.80
53645;DHT22;39547;45.554;12.068;2023-06-01T04:58:59;19.50;65.30
53645;DHT22;39547;45.554;12.068;2023-06-01T05:05:04;19.60;65.00
53645;DHT22;39547;45.554;12.068;2023-06-01T05:11:06;19.70;64.80
53645;DHT22;39547;45.554;12.068;2023-06-01T05:17:08;19.80;65.10
53645;DHT22;39547;45.554;12.068;2023-06-01T05:23:09;19.90;65.60
53645;DHT22;39547;45.554;12.068;2023-06-01T05:29:11;20.00;64.60
53645;DHT22;39547;45.554;12.068;2023-06-01T05:35:13;20.10;64.80
53645;DHT22;39547;45.554;12.068;2023-06-01T05:41:14;20.20;65.20
53645;DHT22;39547;45.554;12.068;2023-06-01T05:47:16;20.30;64.90
53645;DHT22;39547;45.554;12.068;2023-06-01T05:53:17;20.50;64.30
53645;DHT22;39547;45.554;12.068;2023-06-01T05:59:19;20.60;64.20
53645;DHT22;39547;45.554;12.068;2023-06-01T06:05:21;20.80;64.20
53645;DHT22;39547;45.554;12.068;2023-06-01T06:11:22;21.00;64.10
53645;DHT22;39547;45.554;12.068;2023-06-01T06:17:23;21.20;63.40
53645;DHT22;39547;45.554;12.068;2023-06-01T06:23:24;21.40;62.80
53645;DHT22;39547;45.554;12.068;2023-06-01T06:29:32;21.70;62.30
53645;DHT22;39547;45.554;12.068;2023-06-01T06:35:35;21.80;61.70
53645;DHT22;39547;45.554;12.068;2023-06-01T06:41:41;22.00;61.30
53645;DHT22;39547;45.554;12.068;2023-06-01T06:47:49;22.10;60.90
53645;DHT22;39547;45.554;12.068;2023-06-01T06:53:51;22.30;60.40
53645;DHT22;39547;45.554;12.068;2023-06-01T06:59:52;22.40;58.60
53645;DHT22;39547;45.554;12.068;2023-06-01T07:05:54;22.50;58.30
53645;DHT22;39547;45.554;12.068;2023-06-01T07:11:55;22.70;58.60
53645;DHT22;39547;45.554;12.068;2023-06-01T07:17:56;22.80;58.50
53645;DHT22;39547;45.554;12.068;2023-06-01T07:23:58;22.90;57.30
53645;DHT22;39547;45.554;12.068;2023-06-01T07:29:59;23.10;56.90
53645;DHT22;39547;45.554;12.068;2023-06-01T07:36:00;23.30;56.80
53645;DHT22;39547;45.554;12.068;2023-06-01T07:42:01;23.50;56.70
53645;DHT22;39547;45.554;12.068;2023-06-01T07:48:03;23.70;56.50
53645;DHT22;39547;45.554;12.068;2023-06-01T07:54:04;23.90;56.30
53645;DHT22;39547;45.554;12.068;2023-06-01T08:00:06;24.00;55.60
53645;DHT22;39547;45.554;12.068;2023-06-01T08:06:12;24.20;55.70
53645;DHT22;39547;45.554;12.068;2023-06-01T08:12:16;24.30;55.30
53645;DHT22;39547;45.554;12.068;2023-06-01T08:18:22;24.50;55.00
53645;DHT22;39547;45.554;12.068;2023-06-01T08:24:26;24.70;55.10
53645;DHT22;39547;45.554;12.068;2023-06-01T08:30:34;24.80;54.70
53645;DHT22;39547;45.554;12.068;2023-06-01T08:36:35;25.00;54.40
53645;DHT22;39547;45.554;12.068;2023-06-01T08:42:43;25.20;53.80
53645;DHT22;39547;45.554;12.068;2023-06-01T08:48:49;25.30;53.00
53645;DHT22;39547;45.554;12.068;2023-06-01T08:54:54;25.50;52.90
53645;DHT22;39547;45.554;12.068;2023-06-01T09:00:55;25.70;52.10
53645;DHT22;39547;45.554;12.068;2023-06-01T09:07:03;25.80;51.60
53645;DHT22;39547;45.554;12.068;2023-06-01T09:13:05;26.00;51.10
53645;DHT22;39547;45.554;12.068;2023-06-01T09:19:06;26.20;50.40
53645;DHT22;39547;45.554;12.068;2023-06-01T09:25:10;26.30;49.00
53645;DHT22;39547;45.554;12.068;2023-06-01T09:31:11;26.40;49.30
53645;DHT22;39547;45.554;12.068;2023-06-01T09:37:26;26.70;49.30
53645;DHT22;39547;45.554;12.068;2023-06-01T09:43:28;26.90;49.30
53645;DHT22;39547;45.554;12.068;2023-06-01T09:55:32;27.20;49.00
53645;DHT22;39547;45.554;12.068;2023-06-01T10:01:33;27.20;48.80
53645;DHT22;39547;45.554;12.068;2023-06-01T10:07:34;27.30;49.30
53645;DHT22;39547;45.554;12.068;2023-06-01T10:13:38;27.30;47.50
53645;DHT22;39547;45.554;12.068;2023-06-01T10:19:39;27.60;48.50
53645;DHT22;39547;45.554;12.068;2023-06-01T10:25:42;27.80;48.10
53645;DHT22;39547;45.554;12.068;2023-06-01T10:31:45;28.10;47.30
53645;DHT22;39547;45.554;12.068;2023-06-01T10:38:21;28.30;47.50
53645;DHT22;39547;45.554;12.068;2023-06-01T10:44:07;28.30;47.50
53645;DHT22;39547;45.554;12.068;2023-06-01T10:50:08;28.50;46.50
53645;DHT22;39547;45.554;12.068;2023-06-01T10:56:20;28.60;46.80
53645;DHT22;39547;45.554;12.068;2023-06-01T11:02:22;28.70;47.00
53645;DHT22;39547;45.554;12.068;2023-06-01T11:14:29;28.70;47.90
53645;DHT22;39547;45.554;12.068;2023-06-01T11:20:37;28.80;47.40
53645;DHT22;39547;45.554;12.068;2023-06-01T11:26:44;29.10;47.50
53645;DHT22;39547;45.554;12.068;2023-06-01T11:32:45;29.30;46.20
53645;DHT22;39547;45.554;12.068;2023-06-01T11:38:50;29.50;46.00
53645;DHT22;39547;45.554;12.068;2023-06-01T11:44:58;29.40;46.00
53645;DHT22;39547;45.554;12.068;2023-06-01T11:51:03;29.50;46.10
53645;DHT22;39547;45.554;12.068;2023-06-01T11:57:05;29.90;45.50
53645;DHT22;39547;45.554;12.068;2023-06-01T12:03:07;30.40;45.20
53645;DHT22;39547;45.554;12.068;2023-06-01T12:09:08;30.90;44.70
53645;DHT22;39547;45.554;12.068;2023-06-01T12:15:14;31.40;44.20
53645;DHT22;39547;45.554;12.068;2023-06-01T12:21:15;32.10;42.00
53645;DHT22;39547;45.554;12.068;2023-06-01T12:27:18;32.80;40.30
53645;DHT22;39547;45.554;12.068;2023-06-01T12:33:32;33.30;39.40
53645;DHT22;39547;45.554;12.068;2023-06-01T12:39:36;33.80;38.80
53645;DHT22;39547;45.554;12.068;2023-06-01T12:45:42;34.30;38.20
53645;DHT22;39547;45.554;12.068;2023-06-01T12:51:44;34.70;37.50
53645;DHT22;39547;45.554;12.068;2023-06-01T12:57:53;35.20;36.80
53645;DHT22;39547;45.554;12.068;2023-06-01T13:03:54;35.50;35.90
53645;DHT22;39547;45.554;12.068;2023-06-01T13:09:56;35.90;34.90
53645;DHT22;39547;45.554;12.068;2023-06-01T13:15:59;36.30;34.40
53645;DHT22;39547;45.554;12.068;2023-06-01T13:22:01;36.60;33.40
53645;DHT22;39547;45.554;12.068;2023-06-01T13:28:02;37.00;32.70
53645;DHT22;39547;45.554;12.068;2023-06-01T13:34:03;37.30;31.90
53645;DHT22;39547;45.554;12.068;2023-06-01T13:40:05;37.60;30.90
53645;DHT22;39547;45.554;12.068;2023-06-01T13:46:06;37.90;30.60
53645;DHT22;39547;45.554;12.068;2023-06-01T13:52:09;38.20;29.90
53645;DHT22;39547;45.554;12.068;2023-06-01T13:58:10;38.50;29.50
53645;DHT22;39547;45.554;12.068;2023-06-01T14:04:11;38.70;29.30
53645;DHT22;39547;45.554;12.068;2023-06-01T14:10:12;38.90;27.90
53645;DHT22;39547;45.554;12.068;2023-06-01T14:16:15;39.00;27.90
53645;DHT22;39547;45.554;12.068;2023-06-01T14:22:18;39.20;27.60
53645;DHT22;39547;45.554;12.068;2023-06-01T14:28:19;39.30;27.50
53645;DHT22;39547;45.554;12.068;2023-06-01T14:34:21;39.40;26.90
53645;DHT22;39547;45.554;12.068;2023-06-01T14:40:22;39.60;26.90
53645;DHT22;39547;45.554;12.068;2023-06-01T14:46:23;39.60;25.90
53645;DHT22;39547;45.554;12.068;2023-06-01T14:52:24;39.70;26.30
53645;DHT22;39547;45.554;12.068;2023-06-01T14:58:26;39.80;25.80
53645;DHT22;39547;45.554;12.068;2023-06-01T15:04:27;39.80;25.80
53645;DHT22;39547;45.554;12.068;2023-06-01T15:10:28;39.90;25.70
53645;DHT22;39547;45.554;12.068;2023-06-01T15:16:29;39.80;25.00
53645;DHT22;39547;45.554;12.068;2023-06-01T15:22:31;39.70;25.00
53645;DHT22;39547;45.554;12.068;2023-06-01T15:28:33;39.30;25.30
53645;DHT22;39547;45.554;12.068;2023-06-01T15:34:34;37.60;26.30
53645;DHT22;39547;45.554;12.068;2023-06-01T15:40:35;35.00;28.80
53645;DHT22;39547;45.554;12.068;2023-06-01T15:46:36;32.90;30.70
53645;DHT22;39547;45.554;12.068;2023-06-01T15:52:37;31.50;32.50
53645;DHT22;39547;45.554;12.068;2023-06-01T15:58:39;30.60;34.00
53645;DHT22;39547;45.554;12.068;2023-06-01T16:04:40;30.00;34.80
53645;DHT22;39547;45.554;12.068;2023-06-01T16:10:41;29.50;35.40
53645;DHT22;39547;45.554;12.068;2023-06-01T16:16:42;29.20;35.80
53645;DHT22;39547;45.554;12.068;2023-06-01T16:22:44;29.00;36.40
53645;DHT22;39547;45.554;12.068;2023-06-01T16:28:45;28.80;36.70
53645;DHT22;39547;45.554;12.068;2023-06-01T16:34:50;28.60;36.70
53645;DHT22;39547;45.554;12.068;2023-06-01T16:40:51;28.30;37.20
53645;DHT22;39547;45.554;12.068;2023-06-01T16:46:53;28.10;38.60
53645;DHT22;39547;45.554;12.068;2023-06-01T16:52:54;28.00;39.00
53645;DHT22;39547;45.554;12.068;2023-06-01T16:58:55;27.80;39.30
53645;DHT22;39547;45.554;12.068;2023-06-01T17:04:57;27.60;39.90
53645;DHT22;39547;45.554;12.068;2023-06-01T17:10:58;27.40;40.20
53645;DHT22;39547;45.554;12.068;2023-06-01T17:16:59;27.30;40.70
53645;DHT22;39547;45.554;12.068;2023-06-01T17:23:00;27.00;40.90
53645;DHT22;39547;45.554;12.068;2023-06-01T17:29:02;26.90;40.80
53645;DHT22;39547;45.554;12.068;2023-06-01T17:35:03;26.80;40.90
53645;DHT22;39547;45.554;12.068;2023-06-01T17:41:04;26.60;41.20
53645;DHT22;39547;45.554;12.068;2023-06-01T17:47:06;26.50;41.90
53645;DHT22;39547;45.554;12.068;2023-06-01T17:53:07;26.30;43.40
53645;DHT22;39547;45.554;12.068;2023-06-01T17:59:11;26.20;43.60
53645;DHT22;39547;45.554;12.068;2023-06-01T18:05:12;26.00;44.40
53645;DHT22;39547;45.554;12.068;2023-06-01T18:11:13;25.90;44.80
53645;DHT22;39547;45.554;12.068;2023-06-01T18:17:14;25.80;46.00
53645;DHT22;39547;45.554;12.068;2023-06-01T18:23:16;25.60;47.10
53645;DHT22;39547;45.554;12.068;2023-06-01T18:29:17;25.50;47.50
53645;DHT22;39547;45.554;12.068;2023-06-01T18:35:19;25.30;48.20
53645;DHT22;39547;45.554;12.068;2023-06-01T18:41:20;25.20;48.90
53645;DHT22;39547;45.554;12.068;2023-06-01T18:47:22;25.00;49.00
53645;DHT22;39547;45.554;12.068;2023-06-01T18:53:23;24.90;49.90
53645;DHT22;39547;45.554;12.068;2023-06-01T18:59:25;24.80;51.30
53645;DHT22;39547;45.554;12.068;2023-06-01T19:05:26;24.70;51.40
53645;DHT22;39547;45.554;12.068;2023-06-01T19:11:27;24.60;51.80
53645;DHT22;39547;45.554;12.068;2023-06-01T19:17:28;24.50;52.60
53645;DHT22;39547;45.554;12.068;2023-06-01T19:23:31;24.40;53.50
53645;DHT22;39547;45.554;12.068;2023-06-01T19:29:36;24.40;52.90
53645;DHT22;39547;45.554;12.068;2023-06-01T19:35:39;24.30;53.40
53645;DHT22;39547;45.554;12.068;2023-06-01T19:41:44;24.30;53.90
53645;DHT22;39547;45.554;12.068;2023-06-01T19:47:47;24.20;53.90
53645;DHT22;39547;45.554;12.068;2023-06-01T19:53:49;24.10;54.40
53645;DHT22;39547;45.554;12.068;2023-06-01T19:59:51;24.00;55.20
53645;DHT22;39547;45.554;12.068;2023-06-01T20:05:52;23.90;56.40
53645;DHT22;39547;45.554;12.068;2023-06-01T20:11:54;23.70;57.00
53645;DHT22;39547;45.554;12.068;2023-06-01T20:18:03;23.60;57.40
53645;DHT22;39547;45.554;12.068;2023-06-01T20:24:05;23.50;58.40
53645;DHT22;39547;45.554;12.068;2023-06-01T20:30:17;23.30;58.60
53645;DHT22;39547;45.554;12.068;2023-06-01T20:36:29;23.30;58.90
53645;DHT22;39547;45.554;12.068;2023-06-01T20:42:31;23.20;59.00
53645;DHT22;39547;45.554;12.068;2023-06-01T20:48:40;23.10;60.30
53645;DHT22;39547;45.554;12.068;2023-06-01T20:54:41;23.10;60.50
53645;DHT22;39547;45.554;12.068;2023-06-01T21:00:42;23.00;61.00
53645;DHT22;39547;45.554;12.068;2023-06-01T21:06:44;22.90;61.30
53645;DHT22;39547;45.554;12.068;2023-06-01T21:12:45;22.80;61.20
53645;DHT22;39547;45.554;12.068;2023-06-01T21:18:46;22.80;61.40
53645;DHT22;39547;45.554;12.068;2023-06-01T21:24:48;22.80;62.40
53645;DHT22;39547;45.554;12.068;2023-06-01T21:30:49;22.70;62.00
53645;DHT22;39547;45.554;12.068;2023-06-01T21:36:50;22.70;61.60
53645;DHT22;39547;45.554;12.068;2023-06-01T21:42:51;22.60;61.60
53645;DHT22;39547;45.554;12.068;2023-06-01T21:48:53;22.50;61.90
53645;DHT22;39547;45.554;12.068;2023-06-01T21:54:54;22.40;63.00
53645;DHT22;39547;45.554;12.068;2023-06-01T22:00:55;22.30;63.40
53645;DHT22;39547;45.554;12.068;2023-06-01T22:06:56;22.20;63.40
53645;DHT22;39547;45.554;12.068;2023-06-01T22:12:58;22.10;63.40
53645;DHT22;39547;45.554;12.068;2023-06-01T22:18:59;22.00;63.00
53645;DHT22;39547;45.554;12.068;2023-06-01T22:25:01;21.90;63.60
53645;DHT22;39547;45.554;12.068;2023-06-01T22:31:03;21.90;64.20
53645;DHT22;39547;45.554;12.068;2023-06-01T22:37:05;21.90;64.20
53645;DHT22;39547;45.554;12.068;2023-06-01T22:43:07;21.80;64.00
53645;DHT22;39547;45.554;12.068;2023-06-01T22:49:08;21.80;64.40
53645;DHT22;39547;45.554;12.068;2023-06-01T22:55:10;21.80;64.60
53645;DHT22;39547;45.554;12.068;2023-06-01T23:01:11;21.70;64.90
53645;DHT22;39547;45.554;12.068;2023-06-01T23:07:13;21.60;65.10
53645;DHT22;39547;45.554;12.068;2023-06-01T23:13:20;21.50;65.80
53645;DHT22;39547;45.554;12.068;2023-06-01T23:19:26;21.50;66.60
53645;DHT22;39547;45.554;12.068;2023-06-01T23:25:28;21.30;66.70
53645;DHT22;39547;45.554;12.068;2023-06-01T23:31:30;21.30;66.70
53645;DHT22;39547;45.554;12.068;2023-06-01T23:37:35;21.30;67.30
53645;DHT22;39547;45.554;12.068;2023-06-01T23:43:38;21.20;67.40
53645;DHT22;39547;45.554;12.068;2023-06-01T23:49:39;21.20;68.60
53645;DHT22;39547;45.554;12.068;2023-06-01T23:55:41;21.20;68.50
